sensor_id;sensor_type;location;lat;lon;timestamp;P1;durP1;ratioP1;P2;durP2;ratioP2
17790;SDS011;9019;48.132;-1.210;2023-02-26T02:07:21;11.03;;;3.30;;
17790;SDS011;9019;48.132;-1.210;2023-02-26T02:09:48;12.43;;;3.50;;
17790;SDS011;9019;48.132;-1.210;2023-02-26T02:12:21;8.27;;;3.20;;
17790;SDS011;9019;48.132;-1.210;2023-02-26T02:15:01;9.93;;;3.20;;
17790;SDS011;9019;48.132;-1.210;2023-02-26T02:17:37;8.60;;;3.27;;
17790;SDS011;9019;48.132;-1.210;2023-02-26T02:23:11;7.73;;;2.90;;
17790;SDS011;9019;48.132;-1.210;2023-02-26T02:25:56;9.03;;;3.17;;
17790;SDS011;9019;48.132;-1.210;2023-02-26T02:28:58;13.77;;;3.00;;
17790;SDS011;9019;48.132;-1.210;2023-02-26T02:31:40;10.33;;;3.33;;
17790;SDS011;9019;48.132;-1.210;2023-02-26T02:34:12;8.03;;;3.20;;
17790;SDS011;9019;48.132;-1.210;2023-02-26T02:36:44;9.47;;;3.27;;
17790;SDS011;9019;48.132;-1.210;2023-02-26T02:39:17;11.33;;;2.83;;
17790;SDS011;9019;48.132;-1.210;2023-02-26T02:41:48;13.27;;;3.63;;
17790;SDS011;9019;48.132;-1.210;2023-02-26T02:44:20;10.53;;;3.20;;
17790;SDS011;9019;48.132;-1.210;2023-02-26T02:46:55;8.83;;;3.13;;
17790;SDS011;9019;48.132;-1.210;2023-02-26T02:49:26;9.70;;;3.10;;
17790;SDS011;9019;48.132;-1.210;2023-02-26T02:51:57;7.60;;;2.83;;
17790;SDS011;9019;48.132;-1.210;2023-02-26T02:54:30;10.40;;;3.10;;
17790;SDS011;9019;48.132;-1.210;2023-02-26T02:57:02;8.67;;;2.90;;
17790;SDS011;9019;48.132;-1.210;2023-02-26T02:59:36;10.90;;;3.07;;
17790;SDS011;9019;48.132;-1.210;2023-02-26T03:02:10;9.07;;;2.90;;
17790;SDS011;9019;48.132;-1.210;2023-02-26T03:04:42;12.60;;;3.10;;
17790;SDS011;9019;48.132;-1.210;2023-02-26T03:07:10;7.60;;;2.70;;
17790;SDS011;9019;48.132;-1.210;2023-02-26T03:09:37;10.73;;;2.80;;
17790;SDS011;9019;48.132;-1.210;2023-02-26T03:12:05;10.43;;;2.70;;
17790;SDS011;9019;48.132;-1.210;2023-02-26T03:14:32;9.20;;;2.77;;
17790;SDS011;9019;48.132;-1.210;2023-02-26T03:17:02;6.93;;;2.43;;
17790;SDS011;9019;48.132;-1.210;2023-02-26T03:19:40;11.60;;;3.10;;
17790;SDS011;9019;48.132;-1.210;2023-02-26T03:22:16;11.60;;;3.10;;
17790;SDS011;9019;48.132;-1.210;2023-02-26T03:24:53;8.33;;;2.70;;
17790;SDS011;9019;48.132;-1.210;2023-02-26T03:27:25;9.83;;;2.87;;
17790;SDS011;9019;48.132;-1.210;2023-02-26T03:29:57;7.03;;;2.90;;
17790;SDS011;9019;48.132;-1.210;2023-02-26T03:32:28;9.70;;;2.87;;
17790;SDS011;9019;48.132;-1.210;2023-02-26T03:35:00;8.10;;;2.70;;
17790;SDS011;9019;48.132;-1.210;2023-02-26T03:37:33;10.10;;;2.90;;
17790;SDS011;9019;48.132;-1.210;2023-02-26T03:42:40;6.37;;;2.37;;
17790;SDS011;9019;48.132;-1.210;2023-02-26T03:45:12;11.97;;;3.10;;
17790;SDS011;9019;48.132;-1.210;2023-02-26T03:47:53;8.73;;;2.70;;
17790;SDS011;9019;48.132;-1.210;2023-02-26T03:50:27;8.80;;;2.87;;
17790;SDS011;9019;48.132;-1.210;2023-02-26T03:53:01;11.47;;;2.73;;
17790;SDS011;9019;48.132;-1.210;2023-02-26T03:55:32;8.53;;;2.50;;
17790;SDS011;9019;48.132;-1.210;2023-02-26T03:58:04;8.60;;;2.70;;
17790;SDS011;9019;48.132;-1.210;2023-02-26T04:00:31;7.10;;;2.63;;
17790;SDS011;9019;48.132;-1.210;2023-02-26T04:03:03;9.77;;;2.57;;
17790;SDS011;9019;48.132;-1.210;2023-02-26T04:05:37;8.47;;;2.50;;
17790;SDS011;9019;48.132;-1.210;2023-02-26T04:08:06;6.57;;;2.40;;
17790;SDS011;9019;48.132;-1.210;2023-02-26T04:10:35;9.67;;;2.53;;
17790;SDS011;9019;48.132;-1.210;2023-02-26T04:13:06;8.27;;;2.53;;
17790;SDS011;9019;48.132;-1.210;2023-02-26T04:15:34;9.93;;;2.93;;
17790;SDS011;9019;48.132;-1.210;2023-02-26T04:18:01;6.77;;;2.60;;
17790;SDS011;9019;48.132;-1.210;2023-02-26T04:20:28;4.50;;;2.40;;
17790;SDS011;9019;48.132;-1.210;2023-02-26T04:22:56;8.30;;;2.40;;
17790;SDS011;9019;48.132;-1.210;2023-02-26T04:25:23;9.37;;;2.83;;
17790;SDS011;9019;48.132;-1.210;2023-02-26T04:27:51;8.93;;;3.10;;
17790;SDS011;9019;48.132;-1.210;2023-02-26T04:30:18;8.87;;;2.70;;
17790;SDS011;9019;48.132;-1.210;2023-02-26T04:32:45;5.87;;;2.70;;
17790;SDS011;9019;48.132;-1.210;2023-02-26T04:35:13;8.67;;;2.80;;
17790;SDS011;9019;48.132;-1.210;2023-02-26T04:37:42;10.17;;;3.00;;
17790;SDS011;9019;48.132;-1.210;2023-02-26T04:40:28;8.20;;;2.80;;
17790;SDS011;9019;48.132;-1.210;2023-02-26T04:43:02;5.43;;;2.70;;
17790;SDS011;9019;48.132;-1.210;2023-02-26T04:45:53;13.27;;;3.17;;
17790;SDS011;9019;48.132;-1.210;2023-02-26T04:49:10;8.40;;;2.60;;
17790;SDS011;9019;48.132;-1.210;2023-02-26T04:52:26;10.63;;;2.60;;
17790;SDS011;9019;48.132;-1.210;2023-02-26T04:54:53;12.20;;;2.87;;
17790;SDS011;9019;48.132;-1.210;2023-02-26T04:57:21;6.17;;;2.30;;
17790;SDS011;9019;48.132;-1.210;2023-02-26T04:59:51;7.20;;;2.63;;
17790;SDS011;9019;48.132;-1.210;2023-02-26T05:02:18;7.47;;;2.37;;
17790;SDS011;9019;48.132;-1.210;2023-02-26T05:04:45;6.10;;;2.50;;
17790;SDS011;9019;48.132;-1.210;2023-02-26T05:07:13;8.07;;;2.87;;
17790;SDS011;9019;48.132;-1.210;2023-02-26T05:09:40;8.13;;;2.50;;
17790;SDS011;9019;48.132;-1.210;2023-02-26T05:12:07;7.17;;;2.30;;
17790;SDS011;9019;48.132;-1.210;2023-02-26T05:14:43;8.30;;;2.30;;
17790;SDS011;9019;48.132;-1.210;2023-02-26T05:17:10;13.13;;;2.87;;
17790;SDS011;9019;48.132;-1.210;2023-02-26T05:19:43;8.33;;;2.40;;
17790;SDS011;9019;48.132;-1.210;2023-02-26T05:22:13;5.50;;;2.00;;
17790;SDS011;9019;48.132;-1.210;2023-02-26T05:24:48;9.17;;;2.50;;
17790;SDS011;9019;48.132;-1.210;2023-02-26T05:27:37;9.93;;;2.30;;
17790;SDS011;9019;48.132;-1.210;2023-02-26T05:33:39;11.53;;;2.30;;
17790;SDS011;9019;48.132;-1.210;2023-02-26T05:36:07;7.80;;;2.10;;
17790;SDS011;9019;48.132;-1.210;2023-02-26T05:38:37;6.70;;;2.40;;
17790;SDS011;9019;48.132;-1.210;2023-02-26T05:41:04;8.93;;;2.77;;
17790;SDS011;9019;48.132;-1.210;2023-02-26T05:43:32;7.23;;;2.23;;
17790;SDS011;9019;48.132;-1.210;2023-02-26T05:46:00;8.47;;;2.07;;
17790;SDS011;9019;48.132;-1.210;2023-02-26T05:48:27;5.97;;;2.30;;
17790;SDS011;9019;48.132;-1.210;2023-02-26T05:50:56;8.37;;;2.53;;
17790;SDS011;9019;48.132;-1.210;2023-02-26T05:53:23;6.43;;;2.30;;
17790;SDS011;9019;48.132;-1.210;2023-02-26T05:55:51;5.23;;;2.23;;
17790;SDS011;9019;48.132;-1.210;2023-02-26T05:58:18;7.73;;;2.50;;
17790;SDS011;9019;48.132;-1.210;2023-02-26T06:00:46;7.97;;;2.47;;
17790;SDS011;9019;48.132;-1.210;2023-02-26T06:03:13;8.90;;;2.20;;
17790;SDS011;9019;48.132;-1.210;2023-02-26T06:05:40;6.47;;;2.40;;
17790;SDS011;9019;48.132;-1.210;2023-02-26T06:08:09;9.87;;;2.63;;
17790;SDS011;9019;48.132;-1.210;2023-02-26T06:10:39;7.90;;;2.03;;
17790;SDS011;9019;48.132;-1.210;2023-02-26T06:13:06;9.53;;;2.47;;
17790;SDS011;9019;48.132;-1.210;2023-02-26T06:15:34;6.57;;;2.13;;
17790;SDS011;9019;48.132;-1.210;2023-02-26T06:18:03;7.17;;;2.13;;
17790;SDS011;9019;48.132;-1.210;2023-02-26T06:20:30;6.80;;;2.10;;
17790;SDS011;9019;48.132;-1.210;2023-02-26T06:22:58;8.50;;;2.07;;
17790;SDS011;9019;48.132;-1.210;2023-02-26T06:25:27;7.17;;;2.70;;
17790;SDS011;9019;48.132;-1.210;2023-02-26T06:27:54;5.93;;;1.90;;
17790;SDS011;9019;48.132;-1.210;2023-02-26T06:30:21;6.20;;;2.40;;
17790;SDS011;9019;48.132;-1.210;2023-02-26T06:32:49;7.40;;;2.10;;
17790;SDS011;9019;48.132;-1.210;2023-02-26T06:35:16;7.10;;;2.67;;
17790;SDS011;9019;48.132;-1.210;2023-02-26T06:37:43;4.53;;;2.03;;
17790;SDS011;9019;48.132;-1.210;2023-02-26T06:40:11;5.13;;;1.97;;
17790;SDS011;9019;48.132;-1.210;2023-02-26T06:42:44;9.30;;;2.20;;
17790;SDS011;9019;48.132;-1.210;2023-02-26T06:45:14;6.37;;;2.13;;
17790;SDS011;9019;48.132;-1.210;2023-02-26T06:47:45;6.23;;;2.27;;
17790;SDS011;9019;48.132;-1.210;2023-02-26T06:50:15;6.53;;;1.97;;
17790;SDS011;9019;48.132;-1.210;2023-02-26T06:52:45;8.77;;;2.30;;
17790;SDS011;9019;48.132;-1.210;2023-02-26T06:55:13;7.83;;;1.93;;
17790;SDS011;9019;48.132;-1.210;2023-02-26T06:57:41;4.37;;;1.67;;
17790;SDS011;9019;48.132;-1.210;2023-02-26T07:00:10;8.10;;;1.83;;
17790;SDS011;9019;48.132;-1.210;2023-02-26T07:02:38;3.73;;;1.90;;
17790;SDS011;9019;48.132;-1.210;2023-02-26T07:05:05;6.17;;;2.17;;
17790;SDS011;9019;48.132;-1.210;2023-02-26T07:07:33;5.77;;;2.30;;
17790;SDS011;9019;48.132;-1.210;2023-02-26T07:10:00;4.20;;;2.03;;
17790;SDS011;9019;48.132;-1.210;2023-02-26T07:12:28;4.87;;;2.00;;
17790;SDS011;9019;48.132;-1.210;2023-02-26T07:14:55;5.13;;;1.83;;
17790;SDS011;9019;48.132;-1.210;2023-02-26T07:17:23;6.93;;;1.80;;
17790;SDS011;9019;48.132;-1.210;2023-02-26T07:19:51;4.97;;;1.60;;
17790;SDS011;9019;48.132;-1.210;2023-02-26T07:22:18;7.00;;;2.17;;
17790;SDS011;9019;48.132;-1.210;2023-02-26T07:24:46;4.83;;;1.90;;
17790;SDS011;9019;48.132;-1.210;2023-02-26T07:27:13;8.77;;;1.83;;
17790;SDS011;9019;48.132;-1.210;2023-02-26T07:29:40;7.33;;;2.10;;
17790;SDS011;9019;48.132;-1.210;2023-02-26T07:32:07;6.27;;;2.23;;
17790;SDS011;9019;48.132;-1.210;2023-02-26T07:34:36;7.40;;;2.00;;
17790;SDS011;9019;48.132;-1.210;2023-02-26T07:37:03;7.17;;;2.33;;
17790;SDS011;9019;48.132;-1.210;2023-02-26T07:39:30;6.57;;;1.97;;
17790;SDS011;9019;48.132;-1.210;2023-02-26T07:41:57;5.90;;;1.80;;
17790;SDS011;9019;48.132;-1.210;2023-02-26T07:44:24;5.27;;;1.60;;
17790;SDS011;9019;48.132;-1.210;2023-02-26T07:46:51;3.60;;;1.67;;
17790;SDS011;9019;48.132;-1.210;2023-02-26T07:49:19;4.00;;;2.00;;
17790;SDS011;9019;48.132;-1.210;2023-02-26T07:51:47;5.80;;;1.77;;
17790;SDS011;9019;48.132;-1.210;2023-02-26T07:54:14;7.97;;;2.20;;
17790;SDS011;9019;48.132;-1.210;2023-02-26T07:56:41;6.07;;;2.10;;
17790;SDS011;9019;48.132;-1.210;2023-02-26T07:59:09;4.73;;;1.80;;
17790;SDS011;9019;48.132;-1.210;2023-02-26T08:01:36;7.17;;;1.70;;
17790;SDS011;9019;48.132;-1.210;2023-02-26T08:04:03;6.07;;;1.77;;
17790;SDS011;9019;48.132;-1.210;2023-02-26T08:06:30;7.40;;;1.90;;
17790;SDS011;9019;48.132;-1.210;2023-02-26T08:08:59;3.43;;;1.80;;
17790;SDS011;9019;48.132;-1.210;2023-02-26T08:11:26;6.90;;;1.80;;
17790;SDS011;9019;48.132;-1.210;2023-02-26T08:13:53;6.67;;;1.97;;
17790;SDS011;9019;48.132;-1.210;2023-02-26T08:16:20;5.27;;;1.90;;
17790;SDS011;9019;48.132;-1.210;2023-02-26T08:18:47;5.00;;;1.70;;
17790;SDS011;9019;48.132;-1.210;2023-02-26T08:21:24;5.47;;;1.80;;
17790;SDS011;9019;48.132;-1.210;2023-02-26T08:23:51;6.23;;;1.70;;
17790;SDS011;9019;48.132;-1.210;2023-02-26T08:26:19;5.77;;;1.70;;
17790;SDS011;9019;48.132;-1.210;2023-02-26T08:28:47;5.93;;;1.80;;
17790;SDS011;9019;48.132;-1.210;2023-02-26T08:31:14;4.07;;;1.70;;
17790;SDS011;9019;48.132;-1.210;2023-02-26T08:33:41;5.03;;;1.30;;
17790;SDS011;9019;48.132;-1.210;2023-02-26T08:36:09;5.90;;;1.57;;
17790;SDS011;9019;48.132;-1.210;2023-02-26T08:38:36;7.00;;;2.20;;
17790;SDS011;9019;48.132;-1.210;2023-02-26T08:41:03;4.53;;;1.80;;
17790;SDS011;9019;48.132;-1.210;2023-02-26T08:43:31;5.67;;;1.67;;
17790;SDS011;9019;48.132;-1.210;2023-02-26T08:45:58;4.37;;;1.50;;
17790;SDS011;9019;48.132;-1.210;2023-02-26T08:48:25;4.97;;;1.50;;
17790;SDS011;9019;48.132;-1.210;2023-02-26T08:50:52;4.23;;;1.93;;
17790;SDS011;9019;48.132;-1.210;2023-02-26T08:53:19;6.73;;;1.70;;
17790;SDS011;9019;48.132;-1.210;2023-02-26T08:55:47;3.97;;;1.47;;
17790;SDS011;9019;48.132;-1.210;2023-02-26T08:58:14;7.17;;;2.20;;
17790;SDS011;9019;48.132;-1.210;2023-02-26T09:00:43;4.60;;;1.70;;
17790;SDS011;9019;48.132;-1.210;2023-02-26T09:03:10;5.73;;;2.00;;
17790;SDS011;9019;48.132;-1.210;2023-02-26T09:05:37;4.40;;;1.70;;
17790;SDS011;9019;48.132;-1.210;2023-02-26T09:08:05;4.40;;;1.80;;
17790;SDS011;9019;48.132;-1.210;2023-02-26T09:10:32;6.43;;;2.77;;
17790;SDS011;9019;48.132;-1.210;2023-02-26T09:13:01;7.17;;;2.60;;
17790;SDS011;9019;48.132;-1.210;2023-02-26T09:15:30;6.47;;;2.73;;
17790;SDS011;9019;48.132;-1.210;2023-02-26T09:17:58;7.33;;;2.60;;
17790;SDS011;9019;48.132;-1.210;2023-02-26T09:20:25;4.87;;;2.33;;
17790;SDS011;9019;48.132;-1.210;2023-02-26T09:22:52;8.70;;;3.87;;
17790;SDS011;9019;48.132;-1.210;2023-02-26T09:25:19;6.20;;;2.57;;
17790;SDS011;9019;48.132;-1.210;2023-02-26T09:27:46;4.27;;;1.63;;
17790;SDS011;9019;48.132;-1.210;2023-02-26T09:30:13;6.03;;;2.50;;
17790;SDS011;9019;48.132;-1.210;2023-02-26T09:32:40;5.53;;;1.93;;
17790;SDS011;9019;48.132;-1.210;2023-02-26T09:35:08;14.97;;;7.57;;
17790;SDS011;9019;48.132;-1.210;2023-02-26T09:37:36;26.43;;;12.07;;
17790;SDS011;9019;48.132;-1.210;2023-02-26T09:40:04;11.93;;;3.97;;
17790;SDS011;9019;48.132;-1.210;2023-02-26T09:42:40;12.57;;;5.77;;
17790;SDS011;9019;48.132;-1.210;2023-02-26T09:45:20;8.63;;;3.83;;
17790;SDS011;9019;48.132;-1.210;2023-02-26T09:47:51;8.13;;;3.13;;
17790;SDS011;9019;48.132;-1.210;2023-02-26T09:50:21;9.77;;;4.30;;
17790;SDS011;9019;48.132;-1.210;2023-02-26T09:52:51;4.97;;;2.50;;
17790;SDS011;9019;48.132;-1.210;2023-02-26T09:55:25;9.40;;;4.13;;
17790;SDS011;9019;48.132;-1.210;2023-02-26T09:57:55;8.83;;;4.17;;
17790;SDS011;9019;48.132;-1.210;2023-02-26T10:00:28;5.53;;;1.87;;
17790;SDS011;9019;48.132;-1.210;2023-02-26T10:03:00;5.67;;;3.00;;
17790;SDS011;9019;48.132;-1.210;2023-02-26T10:05:42;4.87;;;1.57;;
17790;SDS011;9019;48.132;-1.210;2023-02-26T10:08:15;4.83;;;1.67;;
17790;SDS011;9019;48.132;-1.210;2023-02-26T10:10:49;5.63;;;1.20;;
17790;SDS011;9019;48.132;-1.210;2023-02-26T10:13:24;4.37;;;1.70;;
17790;SDS011;9019;48.132;-1.210;2023-02-26T10:16:00;3.80;;;1.20;;
17790;SDS011;9019;48.132;-1.210;2023-02-26T10:18:35;8.87;;;4.03;;
17790;SDS011;9019;48.132;-1.210;2023-02-26T10:21:09;3.90;;;1.43;;
17790;SDS011;9019;48.132;-1.210;2023-02-26T10:23:41;9.97;;;5.53;;
17790;SDS011;9019;48.132;-1.210;2023-02-26T10:26:13;8.40;;;3.10;;
17790;SDS011;9019;48.132;-1.210;2023-02-26T10:28:49;8.57;;;4.23;;
17790;SDS011;9019;48.132;-1.210;2023-02-26T10:31:22;5.57;;;1.13;;
17790;SDS011;9019;48.132;-1.210;2023-02-26T10:33:55;7.57;;;4.60;;
17790;SDS011;9019;48.132;-1.210;2023-02-26T10:36:36;5.57;;;1.70;;
17790;SDS011;9019;48.132;-1.210;2023-02-26T10:39:15;5.83;;;1.30;;
17790;SDS011;9019;48.132;-1.210;2023-02-26T10:41:49;5.13;;;2.77;;
17790;SDS011;9019;48.132;-1.210;2023-02-26T10:44:19;2.53;;;1.07;;
17790;SDS011;9019;48.132;-1.210;2023-02-26T10:46:55;4.97;;;2.10;;
17790;SDS011;9019;48.132;-1.210;2023-02-26T10:49:40;2.57;;;0.80;;
17790;SDS011;9019;48.132;-1.210;2023-02-26T10:52:16;5.90;;;2.43;;
17790;SDS011;9019;48.132;-1.210;2023-02-26T10:54:46;5.67;;;2.30;;
17790;SDS011;9019;48.132;-1.210;2023-02-26T10:57:27;9.20;;;4.13;;
17790;SDS011;9019;48.132;-1.210;2023-02-26T10:59:57;6.60;;;3.73;;
17790;SDS011;9019;48.132;-1.210;2023-02-26T11:02:30;6.97;;;3.33;;
17790;SDS011;9019;48.132;-1.210;2023-02-26T11:05:01;4.93;;;1.73;;
17790;SDS011;9019;48.132;-1.210;2023-02-26T11:07:31;6.80;;;2.00;;
17790;SDS011;9019;48.132;-1.210;2023-02-26T11:10:00;2.97;;;1.80;;
17790;SDS011;9019;48.132;-1.210;2023-02-26T11:12:27;5.03;;;1.27;;
17790;SDS011;9019;48.132;-1.210;2023-02-26T11:14:54;3.53;;;1.30;;
17790;SDS011;9019;48.132;-1.210;2023-02-26T11:17:22;2.97;;;1.30;;
17790;SDS011;9019;48.132;-1.210;2023-02-26T11:19:52;3.60;;;1.60;;
17790;SDS011;9019;48.132;-1.210;2023-02-26T11:22:24;4.03;;;1.90;;
17790;SDS011;9019;48.132;-1.210;2023-02-26T11:24:54;4.93;;;1.50;;
17790;SDS011;9019;48.132;-1.210;2023-02-26T11:27:24;4.80;;;1.10;;
17790;SDS011;9019;48.132;-1.210;2023-02-26T11:29:57;3.43;;;1.00;;
17790;SDS011;9019;48.132;-1.210;2023-02-26T11:32:28;4.57;;;1.27;;
17790;SDS011;9019;48.132;-1.210;2023-02-26T11:34:56;5.27;;;1.43;;
17790;SDS011;9019;48.132;-1.210;2023-02-26T11:37:26;3.83;;;1.33;;
17790;SDS011;9019;48.132;-1.210;2023-02-26T11:39:57;8.73;;;1.40;;
17790;SDS011;9019;48.132;-1.210;2023-02-26T11:42:33;5.30;;;1.13;;
17790;SDS011;9019;48.132;-1.210;2023-02-26T11:45:03;4.43;;;1.30;;
17790;SDS011;9019;48.132;-1.210;2023-02-26T11:47:32;3.70;;;1.27;;
17790;SDS011;9019;48.132;-1.210;2023-02-26T11:50:00;3.47;;;1.33;;
17790;SDS011;9019;48.132;-1.210;2023-02-26T11:52:32;3.33;;;1.33;;
17790;SDS011;9019;48.132;-1.210;2023-02-26T11:55:03;4.27;;;1.10;;
17790;SDS011;9019;48.132;-1.210;2023-02-26T11:57:32;9.37;;;1.43;;
17790;SDS011;9019;48.132;-1.210;2023-02-26T12:00:00;3.83;;;1.20;;
17790;SDS011;9019;48.132;-1.210;2023-02-26T12:02:41;2.37;;;1.13;;
17790;SDS011;9019;48.132;-1.210;2023-02-26T12:05:10;4.47;;;1.40;;
17790;SDS011;9019;48.132;-1.210;2023-02-26T12:07:40;3.83;;;1.10;;
17790;SDS011;9019;48.132;-1.210;2023-02-26T12:10:13;7.67;;;1.63;;
17790;SDS011;9019;48.132;-1.210;2023-02-26T12:15:33;5.67;;;1.37;;
17790;SDS011;9019;48.132;-1.210;2023-02-26T12:18:27;3.10;;;1.40;;
17790;SDS011;9019;48.132;-1.210;2023-02-26T12:21:04;2.37;;;1.20;;
17790;SDS011;9019;48.132;-1.210;2023-02-26T12:23:59;2.67;;;1.20;;
17790;SDS011;9019;48.132;-1.210;2023-02-26T12:26:52;2.80;;;1.10;;
17790;SDS011;9019;48.132;-1.210;2023-02-26T12:32:23;4.57;;;1.10;;
17790;SDS011;9019;48.132;-1.210;2023-02-26T12:37:55;4.40;;;1.43;;
17790;SDS011;9019;48.132;-1.210;2023-02-26T12:43:46;3.77;;;1.20;;
17790;SDS011;9019;48.132;-1.210;2023-02-26T12:46:27;3.53;;;1.30;;
17790;SDS011;9019;48.132;-1.210;2023-02-26T12:49:05;4.40;;;1.37;;
17790;SDS011;9019;48.132;-1.210;2023-02-26T12:51:56;2.50;;;1.10;;
17790;SDS011;9019;48.132;-1.210;2023-02-26T12:54:56;3.77;;;1.40;;
17790;SDS011;9019;48.132;-1.210;2023-02-26T12:57:40;2.20;;;1.10;;
17790;SDS011;9019;48.132;-1.210;2023-02-26T13:00:21;3.43;;;1.60;;
17790;SDS011;9019;48.132;-1.210;2023-02-26T13:03:09;3.00;;;1.33;;
17790;SDS011;9019;48.132;-1.210;2023-02-26T13:05:59;2.30;;;0.90;;
17790;SDS011;9019;48.132;-1.210;2023-02-26T13:08:42;1.87;;;0.90;;
17790;SDS011;9019;48.132;-1.210;2023-02-26T13:11:19;3.23;;;1.10;;
17790;SDS011;9019;48.132;-1.210;2023-02-26T13:13:56;2.50;;;1.20;;
17790;SDS011;9019;48.132;-1.210;2023-02-26T13:16:38;3.23;;;1.23;;
17790;SDS011;9019;48.132;-1.210;2023-02-26T13:19:15;2.93;;;0.90;;
17790;SDS011;9019;48.132;-1.210;2023-02-26T13:21:51;3.50;;;0.90;;
17790;SDS011;9019;48.132;-1.210;2023-02-26T13:24:22;2.17;;;1.10;;
17790;SDS011;9019;48.132;-1.210;2023-02-26T13:26:53;1.67;;;0.90;;
17790;SDS011;9019;48.132;-1.210;2023-02-26T13:29:22;2.47;;;0.80;;
17790;SDS011;9019;48.132;-1.210;2023-02-26T13:31:57;2.67;;;0.90;;
17790;SDS011;9019;48.132;-1.210;2023-02-26T13:34:30;2.77;;;0.90;;
17790;SDS011;9019;48.132;-1.210;2023-02-26T13:37:03;3.70;;;1.30;;
17790;SDS011;9019;48.132;-1.210;2023-02-26T13:39:35;3.73;;;1.00;;
17790;SDS011;9019;48.132;-1.210;2023-02-26T13:42:10;2.90;;;1.03;;
17790;SDS011;9019;48.132;-1.210;2023-02-26T13:44:51;2.33;;;1.10;;
17790;SDS011;9019;48.132;-1.210;2023-02-26T13:47:30;1.60;;;0.83;;
17790;SDS011;9019;48.132;-1.210;2023-02-26T13:53:01;2.17;;;0.90;;
17790;SDS011;9019;48.132;-1.210;2023-02-26T13:55:36;1.60;;;0.90;;
17790;SDS011;9019;48.132;-1.210;2023-02-26T13:58:17;2.93;;;1.10;;
17790;SDS011;9019;48.132;-1.210;2023-02-26T14:00:58;1.83;;;0.73;;
17790;SDS011;9019;48.132;-1.210;2023-02-26T14:03:32;2.93;;;1.10;;
17790;SDS011;9019;48.132;-1.210;2023-02-26T14:09:04;4.63;;;1.00;;
17790;SDS011;9019;48.132;-1.210;2023-02-26T14:11:56;2.33;;;1.00;;
17790;SDS011;9019;48.132;-1.210;2023-02-26T14:14:28;1.73;;;0.73;;
17790;SDS011;9019;48.132;-1.210;2023-02-26T14:20:22;1.87;;;0.87;;
17790;SDS011;9019;48.132;-1.210;2023-02-26T14:22:52;2.20;;;0.80;;
17790;SDS011;9019;48.132;-1.210;2023-02-26T14:25:37;1.13;;;0.70;;
17790;SDS011;9019;48.132;-1.210;2023-02-26T14:31:18;3.27;;;0.90;;
17790;SDS011;9019;48.132;-1.210;2023-02-26T14:33:56;2.07;;;0.90;;
17790;SDS011;9019;48.132;-1.210;2023-02-26T14:36:40;3.20;;;0.60;;
17790;SDS011;9019;48.132;-1.210;2023-02-26T14:39:22;2.17;;;0.70;;
17790;SDS011;9019;48.132;-1.210;2023-02-26T14:41:55;5.40;;;1.07;;
17790;SDS011;9019;48.132;-1.210;2023-02-26T14:44:25;2.63;;;0.77;;
17790;SDS011;9019;48.132;-1.210;2023-02-26T14:46:54;1.70;;;0.80;;
17790;SDS011;9019;48.132;-1.210;2023-02-26T14:49:25;3.60;;;0.90;;
17790;SDS011;9019;48.132;-1.210;2023-02-26T14:52:08;4.03;;;0.93;;
17790;SDS011;9019;48.132;-1.210;2023-02-26T14:55:02;2.00;;;0.70;;
17790;SDS011;9019;48.132;-1.210;2023-02-26T14:57:43;2.70;;;0.90;;
17790;SDS011;9019;48.132;-1.210;2023-02-26T15:00:19;2.50;;;0.70;;
17790;SDS011;9019;48.132;-1.210;2023-02-26T15:03:17;2.17;;;0.77;;
17790;SDS011;9019;48.132;-1.210;2023-02-26T15:06:02;2.33;;;0.87;;
17790;SDS011;9019;48.132;-1.210;2023-02-26T15:08:45;3.50;;;0.80;;
17790;SDS011;9019;48.132;-1.210;2023-02-26T15:11:23;1.20;;;0.63;;
17790;SDS011;9019;48.132;-1.210;2023-02-26T15:14:10;2.20;;;0.70;;
17790;SDS011;9019;48.132;-1.210;2023-02-26T15:17:04;3.97;;;0.80;;
17790;SDS011;9019;48.132;-1.210;2023-02-26T15:19:45;1.93;;;0.60;;
17790;SDS011;9019;48.132;-1.210;2023-02-26T15:22:24;1.87;;;0.63;;
17790;SDS011;9019;48.132;-1.210;2023-02-26T15:25:00;1.73;;;0.80;;
17790;SDS011;9019;48.132;-1.210;2023-02-26T15:27:28;1.50;;;0.80;;
17790;SDS011;9019;48.132;-1.210;2023-02-26T15:29:57;0.93;;;0.70;;
17790;SDS011;9019;48.132;-1.210;2023-02-26T15:32:26;3.43;;;0.90;;
17790;SDS011;9019;48.132;-1.210;2023-02-26T15:34:56;3.37;;;0.73;;
17790;SDS011;9019;48.132;-1.210;2023-02-26T15:37:26;2.13;;;1.07;;
17790;SDS011;9019;48.132;-1.210;2023-02-26T15:39:57;2.10;;;0.80;;
17790;SDS011;9019;48.132;-1.210;2023-02-26T15:42:31;3.20;;;0.90;;
17790;SDS011;9019;48.132;-1.210;2023-02-26T15:45:02;3.43;;;1.33;;
17790;SDS011;9019;48.132;-1.210;2023-02-26T15:47:31;3.60;;;1.90;;
17790;SDS011;9019;48.132;-1.210;2023-02-26T15:49:58;1.20;;;0.83;;
17790;SDS011;9019;48.132;-1.210;2023-02-26T15:52:26;2.27;;;1.53;;
17790;SDS011;9019;48.132;-1.210;2023-02-26T15:54:55;4.63;;;4.23;;
17790;SDS011;9019;48.132;-1.210;2023-02-26T15:57:24;4.87;;;3.60;;
17790;SDS011;9019;48.132;-1.210;2023-02-26T16:00:00;3.97;;;3.03;;
17790;SDS011;9019;48.132;-1.210;2023-02-26T16:02:32;37.53;;;22.60;;
17790;SDS011;9019;48.132;-1.210;2023-02-26T16:05:01;23.43;;;16.50;;
17790;SDS011;9019;48.132;-1.210;2023-02-26T16:07:29;8.20;;;5.30;;
17790;SDS011;9019;48.132;-1.210;2023-02-26T16:09:56;14.70;;;11.10;;
17790;SDS011;9019;48.132;-1.210;2023-02-26T16:12:32;7.27;;;4.83;;
17790;SDS011;9019;48.132;-1.210;2023-02-26T16:15:05;4.63;;;3.47;;
17790;SDS011;9019;48.132;-1.210;2023-02-26T16:17:38;7.57;;;6.07;;
17790;SDS011;9019;48.132;-1.210;2023-02-26T16:20:10;11.67;;;8.90;;
17790;SDS011;9019;48.132;-1.210;2023-02-26T16:22:41;12.80;;;10.43;;
17790;SDS011;9019;48.132;-1.210;2023-02-26T16:25:16;16.23;;;13.43;;
17790;SDS011;9019;48.132;-1.210;2023-02-26T16:27:48;8.43;;;7.33;;
17790;SDS011;9019;48.132;-1.210;2023-02-26T16:30:25;6.40;;;4.47;;
17790;SDS011;9019;48.132;-1.210;2023-02-26T16:32:56;5.73;;;3.70;;
17790;SDS011;9019;48.132;-1.210;2023-02-26T16:35:27;4.43;;;2.30;;
17790;SDS011;9019;48.132;-1.210;2023-02-26T16:37:59;6.23;;;5.57;;
17790;SDS011;9019;48.132;-1.210;2023-02-26T16:40:32;20.27;;;13.30;;
17790;SDS011;9019;48.132;-1.210;2023-02-26T16:43:01;22.17;;;14.33;;
17790;SDS011;9019;48.132;-1.210;2023-02-26T16:45:45;4.13;;;3.03;;
17790;SDS011;9019;48.132;-1.210;2023-02-26T16:48:16;3.27;;;2.00;;
17790;SDS011;9019;48.132;-1.210;2023-02-26T16:50:48;2.13;;;1.33;;
17790;SDS011;9019;48.132;-1.210;2023-02-26T16:53:21;4.47;;;3.67;;
17790;SDS011;9019;48.132;-1.210;2023-02-26T16:55:50;4.47;;;3.63;;
17790;SDS011;9019;48.132;-1.210;2023-02-26T16:58:19;9.20;;;7.00;;
17790;SDS011;9019;48.132;-1.210;2023-02-26T17:00:49;4.40;;;3.03;;
17790;SDS011;9019;48.132;-1.210;2023-02-26T17:03:22;3.20;;;2.37;;
17790;SDS011;9019;48.132;-1.210;2023-02-26T17:05:53;6.97;;;5.83;;
17790;SDS011;9019;48.132;-1.210;2023-02-26T17:08:26;13.13;;;7.17;;
17790;SDS011;9019;48.132;-1.210;2023-02-26T17:10:59;5.30;;;2.60;;
17790;SDS011;9019;48.132;-1.210;2023-02-26T17:13:28;2.10;;;1.27;;
17790;SDS011;9019;48.132;-1.210;2023-02-26T17:15:59;10.83;;;8.50;;
17790;SDS011;9019;48.132;-1.210;2023-02-26T17:18:27;18.17;;;14.53;;
17790;SDS011;9019;48.132;-1.210;2023-02-26T17:20:55;12.63;;;8.60;;
17790;SDS011;9019;48.132;-1.210;2023-02-26T17:23:25;20.50;;;15.03;;
17790;SDS011;9019;48.132;-1.210;2023-02-26T17:25:56;3.87;;;3.47;;
17790;SDS011;9019;48.132;-1.210;2023-02-26T17:28:27;3.97;;;2.70;;
17790;SDS011;9019;48.132;-1.210;2023-02-26T17:31:00;5.63;;;4.73;;
17790;SDS011;9019;48.132;-1.210;2023-02-26T17:33:27;1.77;;;1.50;;
17790;SDS011;9019;48.132;-1.210;2023-02-26T17:35:54;2.90;;;2.23;;
17790;SDS011;9019;48.132;-1.210;2023-02-26T17:38:24;2.47;;;1.20;;
17790;SDS011;9019;48.132;-1.210;2023-02-26T17:40:52;1.77;;;1.00;;
17790;SDS011;9019;48.132;-1.210;2023-02-26T17:43:19;1.73;;;1.00;;
17790;SDS011;9019;48.132;-1.210;2023-02-26T17:45:46;1.20;;;0.70;;
17790;SDS011;9019;48.132;-1.210;2023-02-26T17:48:15;1.53;;;1.00;;
17790;SDS011;9019;48.132;-1.210;2023-02-26T17:50:43;1.87;;;1.00;;
17790;SDS011;9019;48.132;-1.210;2023-02-26T17:53:12;2.40;;;1.00;;
17790;SDS011;9019;48.132;-1.210;2023-02-26T17:55:40;1.43;;;0.90;;